Damascus, VA

13:56 EDT je la 30an de aŭgusto 2015 (GMT -0400)
Friendship | | Change Station
CLOSE
Current Station
Personaj Veter-Stacioj
Location: Glade Spring, VA
Alteco: 2015 ft
Najbaraj veter-stacioj

Elev 2015 ft 36.73 °N, 81.74 °W | Updated 8 seconds ago

Nuboplena
Nuboplena
75.5 °F
Sentas kiel 77 °F
N
0.0
Vento Varianta Vento from SOr
Gusts 0.0 mej/h

hodiaŭ
High -- | Low -- °F
--% Ebla precip.
hieraŭ
High -- | Low -- °F
Precip. -- co
6:56 AM 7:58 PM
Plenlumo, 99% visible
Aerpremo 30.23 co
Vidodistanco 10.0 mejloj
Nuboj Pliparte nuba 12000 ft
Varmindico 77 °F
Rosopunkto 66 °F
Humido 72%
Pluvokvanto 0.00 co
Neĝprofundo Not available.
UV 6 out of 12
Pollen 7.40 out of 12
Aerkvalito Not available.
Flu Activity Not available.
METAR KVJI 301735Z AUTO 00000KT 10SM BKN120 26/15 A3023 RMK AO2 T02590147
Aerpremo 30.23 co
Vidodistanco 10.0 mejloj
Nuboj Pliparte nuba 12000 ft
Varmindico 77 °F
Rosopunkto 66 °F
Humido 72%
Pluvokvanto 0.00 co
Neĝprofundo Not available.
UV 6 out of 12
Pollen 7.40 out of 12
Aerkvalito Not available.
Flu Activity Not available.
METAR KVJI 301735Z AUTO 00000KT 10SM BKN120 26/15 A3023 RMK AO2 T02590147

10-Day Weather Forecast

×

Almanac

Astronomio

Aug. 30, 2015 Leviĝo Subiro
Aktuala tempo
Civila krepusko
Naŭtika krepusko
Astronomia krepusko
Luno
Daŭro de videbla lumo
Daŭro de tago
Tomorrow will be .
, % of the Moon is Illuminated

Hodiaŭaj ekstremaĵoj

State Highs State Lows

Community

WunderPhotos

Upload Photos

1,851,014 photos uploaded!

WunderBlogs® & News

Nearby

Aerkvalito

  Aerkvalito Aerkvalita indico Poluanto
Not available.

Neĝa profundeco

Station Depth Alteco

Earthquake Activity

Urbo Distance Mag. Time & Date
Minimum magnitude displayed is 2.5.

Coastal Water Temperatures

Loko Temperaturo

Stations

Najbaraj veter-stacioj

Loko de stacio Temp Venta
kvazaŭtemperaturo
Rosopunkto Humido Vento Precip. Elev Ĝisdatigita je Tipo